sensor_id;sensor_type;location;lat;lon;timestamp;temperature;humidity
32217;DHT22;67098;51.140;4.088;2023-08-31T00:02:15;17.50;89.70
32217;DHT22;67098;51.140;4.088;2023-08-31T00:04:46;17.50;89.30
32217;DHT22;67098;51.140;4.088;2023-08-31T00:07:12;17.50;90.00
32217;DHT22;67098;51.140;4.088;2023-08-31T00:09:38;17.50;89.80
32217;DHT22;67098;51.140;4.088;2023-08-31T00:12:05;17.50;89.70
32217;DHT22;67098;51.140;4.088;2023-08-31T00:14:31;17.40;90.10
32217;DHT22;67098;51.140;4.088;2023-08-31T00:16:59;17.40;89.90
32217;DHT22;67098;51.140;4.088;2023-08-31T00:19:24;17.50;89.90
32217;DHT22;67098;51.140;4.088;2023-08-31T00:21:50;17.40;89.50
32217;DHT22;67098;51.140;4.088;2023-08-31T00:24:16;17.40;89.30
32217;DHT22;67098;51.140;4.088;2023-08-31T00:26:42;17.50;89.10
32217;DHT22;67098;51.140;4.088;2023-08-31T00:29:11;17.40;88.80
32217;DHT22;67098;51.140;4.088;2023-08-31T00:31:37;17.40;89.40
32217;DHT22;67098;51.140;4.088;2023-08-31T00:34:03;17.40;89.80
32217;DHT22;67098;51.140;4.088;2023-08-31T00:36:31;17.30;89.80
32217;DHT22;67098;51.140;4.088;2023-08-31T00:38:57;17.20;90.10
32217;DHT22;67098;51.140;4.088;2023-08-31T00:41:23;17.20;90.00
32217;DHT22;67098;51.140;4.088;2023-08-31T00:43:49;17.20;90.00
32217;DHT22;67098;51.140;4.088;2023-08-31T00:46:15;17.20;90.00
32217;DHT22;67098;51.140;4.088;2023-08-31T00:48:41;17.20;90.00
32217;DHT22;67098;51.140;4.088;2023-08-31T00:51:07;17.20;89.80
32217;DHT22;67098;51.140;4.088;2023-08-31T00:53:34;17.20;89.90
32217;DHT22;67098;51.140;4.088;2023-08-31T00:56:01;17.10;90.20
32217;DHT22;67098;51.140;4.088;2023-08-31T00:58:27;17.10;90.30
32217;DHT22;67098;51.140;4.088;2023-08-31T01:00:58;17.10;90.40
32217;DHT22;67098;51.140;4.088;2023-08-31T01:03:39;17.10;90.30
32217;DHT22;67098;51.140;4.088;2023-08-31T01:06:23;17.10;90.20
32217;DHT22;67098;51.140;4.088;2023-08-31T01:08:57;17.10;90.10
32217;DHT22;67098;51.140;4.088;2023-08-31T01:11:34;17.00;90.40
32217;DHT22;67098;51.140;4.088;2023-08-31T01:14:15;16.90;90.60
32217;DHT22;67098;51.140;4.088;2023-08-31T01:16:42;17.00;90.50
32217;DHT22;67098;51.140;4.088;2023-08-31T01:19:30;17.00;90.50
32217;DHT22;67098;51.140;4.088;2023-08-31T01:22:00;17.00;90.50
32217;DHT22;67098;51.140;4.088;2023-08-31T01:24:30;17.00;90.40
32217;DHT22;67098;51.140;4.088;2023-08-31T01:26:57;16.90;90.60
32217;DHT22;67098;51.140;4.088;2023-08-31T01:29:23;17.00;90.50
32217;DHT22;67098;51.140;4.088;2023-08-31T01:31:49;16.90;90.40
32217;DHT22;67098;51.140;4.088;2023-08-31T01:34:15;16.90;90.40
32217;DHT22;67098;51.140;4.088;2023-08-31T01:36:45;16.80;90.60
32217;DHT22;67098;51.140;4.088;2023-08-31T01:39:35;16.90;90.60
32217;DHT22;67098;51.140;4.088;2023-08-31T01:42:05;16.80;90.50
32217;DHT22;67098;51.140;4.088;2023-08-31T01:44:32;16.80;90.60
32217;DHT22;67098;51.140;4.088;2023-08-31T01:47:03;16.80;90.60
32217;DHT22;67098;51.140;4.088;2023-08-31T01:49:38;16.90;90.60
32217;DHT22;67098;51.140;4.088;2023-08-31T01:52:05;16.80;90.70
32217;DHT22;67098;51.140;4.088;2023-08-31T01:54:32;16.80;91.10
32217;DHT22;67098;51.140;4.088;2023-08-31T01:56:58;16.80;90.90
32217;DHT22;67098;51.140;4.088;2023-08-31T01:59:24;16.60;90.90
32217;DHT22;67098;51.140;4.088;2023-08-31T02:01:50;16.70;90.90
32217;DHT22;67098;51.140;4.088;2023-08-31T02:04:15;16.60;91.00
32217;DHT22;67098;51.140;4.088;2023-08-31T02:06:41;16.60;91.30
32217;DHT22;67098;51.140;4.088;2023-08-31T02:09:08;16.50;91.40
32217;DHT22;67098;51.140;4.088;2023-08-31T02:11:34;16.50;91.40
32217;DHT22;67098;51.140;4.088;2023-08-31T02:14:04;16.40;91.40
32217;DHT22;67098;51.140;4.088;2023-08-31T02:16:31;16.40;91.60
32217;DHT22;67098;51.140;4.088;2023-08-31T02:18:57;16.50;91.60
32217;DHT22;67098;51.140;4.088;2023-08-31T02:21:23;16.50;91.40
32217;DHT22;67098;51.140;4.088;2023-08-31T02:23:49;16.50;91.60
32217;DHT22;67098;51.140;4.088;2023-08-31T02:26:14;16.50;91.60
32217;DHT22;67098;51.140;4.088;2023-08-31T02:28:40;16.50;91.50
32217;DHT22;67098;51.140;4.088;2023-08-31T02:31:06;16.50;91.50
32217;DHT22;67098;51.140;4.088;2023-08-31T02:33:31;16.40;91.70
32217;DHT22;67098;51.140;4.088;2023-08-31T02:35:58;16.40;91.80
32217;DHT22;67098;51.140;4.088;2023-08-31T02:38:23;16.50;91.60
32217;DHT22;67098;51.140;4.088;2023-08-31T02:40:49;16.50;91.50
32217;DHT22;67098;51.140;4.088;2023-08-31T02:43:15;16.50;91.90
32217;DHT22;67098;51.140;4.088;2023-08-31T02:45:41;16.50;91.40
32217;DHT22;67098;51.140;4.088;2023-08-31T02:48:07;16.60;91.50
32217;DHT22;67098;51.140;4.088;2023-08-31T02:50:37;16.50;91.80
32217;DHT22;67098;51.140;4.088;2023-08-31T02:53:03;16.50;91.70
32217;DHT22;67098;51.140;4.088;2023-08-31T02:55:32;16.50;91.70
32217;DHT22;67098;51.140;4.088;2023-08-31T02:57:58;16.50;91.60
32217;DHT22;67098;51.140;4.088;2023-08-31T03:00:24;16.50;91.70
32217;DHT22;67098;51.140;4.088;2023-08-31T03:02:50;16.60;91.60
32217;DHT22;67098;51.140;4.088;2023-08-31T03:05:19;16.70;91.40
32217;DHT22;67098;51.140;4.088;2023-08-31T03:07:47;16.60;91.40
32217;DHT22;67098;51.140;4.088;2023-08-31T03:10:13;16.60;91.30
32217;DHT22;67098;51.140;4.088;2023-08-31T03:12:39;16.50;91.60
32217;DHT22;67098;51.140;4.088;2023-08-31T03:15:05;16.60;91.50
32217;DHT22;67098;51.140;4.088;2023-08-31T03:17:31;16.60;91.50
32217;DHT22;67098;51.140;4.088;2023-08-31T03:19:57;16.60;91.50
32217;DHT22;67098;51.140;4.088;2023-08-31T03:22:23;16.50;91.40
32217;DHT22;67098;51.140;4.088;2023-08-31T03:24:48;16.50;91.50
32217;DHT22;67098;51.140;4.088;2023-08-31T03:27:14;16.60;91.40
32217;DHT22;67098;51.140;4.088;2023-08-31T03:29:42;16.50;91.50
32217;DHT22;67098;51.140;4.088;2023-08-31T03:32:08;16.50;91.60
32217;DHT22;67098;51.140;4.088;2023-08-31T03:34:33;16.50;91.60
32217;DHT22;67098;51.140;4.088;2023-08-31T03:36:59;16.50;91.60
32217;DHT22;67098;51.140;4.088;2023-08-31T03:39:25;16.50;91.60
32217;DHT22;67098;51.140;4.088;2023-08-31T03:41:51;16.50;91.90
32217;DHT22;67098;51.140;4.088;2023-08-31T03:44:17;16.50;92.00
32217;DHT22;67098;51.140;4.088;2023-08-31T03:46:43;16.40;92.00
32217;DHT22;67098;51.140;4.088;2023-08-31T03:49:09;16.40;92.20
32217;DHT22;67098;51.140;4.088;2023-08-31T03:51:35;16.40;92.40
32217;DHT22;67098;51.140;4.088;2023-08-31T03:54:00;16.50;92.40
32217;DHT22;67098;51.140;4.088;2023-08-31T03:56:26;16.50;92.40
32217;DHT22;67098;51.140;4.088;2023-08-31T03:58:52;16.50;92.60
32217;DHT22;67098;51.140;4.088;2023-08-31T04:01:18;16.50;92.50
32217;DHT22;67098;51.140;4.088;2023-08-31T04:03:44;16.50;92.60
32217;DHT22;67098;51.140;4.088;2023-08-31T04:06:10;16.50;92.60
32217;DHT22;67098;51.140;4.088;2023-08-31T04:08:36;16.50;92.60
32217;DHT22;67098;51.140;4.088;2023-08-31T04:11:02;16.50;92.60
32217;DHT22;67098;51.140;4.088;2023-08-31T04:13:28;16.60;92.60
32217;DHT22;67098;51.140;4.088;2023-08-31T04:15:54;16.60;92.50
32217;DHT22;67098;51.140;4.088;2023-08-31T04:18:21;16.60;92.50
32217;DHT22;67098;51.140;4.088;2023-08-31T04:20:51;16.50;92.50
32217;DHT22;67098;51.140;4.088;2023-08-31T04:23:18;16.50;92.60
32217;DHT22;67098;51.140;4.088;2023-08-31T04:25:45;16.50;92.60
32217;DHT22;67098;51.140;4.088;2023-08-31T04:28:11;16.50;92.60
32217;DHT22;67098;51.140;4.088;2023-08-31T04:30:38;16.50;92.50
32217;DHT22;67098;51.140;4.088;2023-08-31T04:33:05;16.50;92.60
32217;DHT22;67098;51.140;4.088;2023-08-31T04:35:32;16.40;92.60
32217;DHT22;67098;51.140;4.088;2023-08-31T04:37:58;16.40;92.60
32217;DHT22;67098;51.140;4.088;2023-08-31T04:40:23;16.40;92.80
32217;DHT22;67098;51.140;4.088;2023-08-31T04:42:52;16.40;92.90
32217;DHT22;67098;51.140;4.088;2023-08-31T04:45:18;16.40;92.80
32217;DHT22;67098;51.140;4.088;2023-08-31T04:47:43;16.40;92.90
32217;DHT22;67098;51.140;4.088;2023-08-31T04:50:09;16.40;92.70
32217;DHT22;67098;51.140;4.088;2023-08-31T04:52:35;16.40;92.70
32217;DHT22;67098;51.140;4.088;2023-08-31T04:55:02;16.40;92.70
32217;DHT22;67098;51.140;4.088;2023-08-31T04:57:30;16.30;92.70
32217;DHT22;67098;51.140;4.088;2023-08-31T04:59:56;16.30;92.70
32217;DHT22;67098;51.140;4.088;2023-08-31T05:02:22;16.30;92.70
32217;DHT22;67098;51.140;4.088;2023-08-31T05:04:48;16.30;92.70
32217;DHT22;67098;51.140;4.088;2023-08-31T05:07:13;16.30;92.70
32217;DHT22;67098;51.140;4.088;2023-08-31T05:09:39;16.30;92.70
32217;DHT22;67098;51.140;4.088;2023-08-31T05:12:05;16.30;92.70
32217;DHT22;67098;51.140;4.088;2023-08-31T05:14:32;16.30;92.90
32217;DHT22;67098;51.140;4.088;2023-08-31T05:17:00;16.40;92.90
32217;DHT22;67098;51.140;4.088;2023-08-31T05:19:26;16.40;93.00
32217;DHT22;67098;51.140;4.088;2023-08-31T05:21:52;16.40;93.00
32217;DHT22;67098;51.140;4.088;2023-08-31T05:24:18;16.40;93.10
32217;DHT22;67098;51.140;4.088;2023-08-31T05:26:43;16.40;93.00
32217;DHT22;67098;51.140;4.088;2023-08-31T05:29:10;16.50;93.10
32217;DHT22;67098;51.140;4.088;2023-08-31T05:31:36;16.50;92.90
32217;DHT22;67098;51.140;4.088;2023-08-31T05:34:02;16.50;92.90
32217;DHT22;67098;51.140;4.088;2023-08-31T05:36:28;16.50;92.90
32217;DHT22;67098;51.140;4.088;2023-08-31T05:38:54;16.50;93.00
32217;DHT22;67098;51.140;4.088;2023-08-31T05:41:20;16.50;93.00
32217;DHT22;67098;51.140;4.088;2023-08-31T05:43:46;16.50;93.00
32217;DHT22;67098;51.140;4.088;2023-08-31T05:46:12;16.40;93.00
32217;DHT22;67098;51.140;4.088;2023-08-31T05:48:38;16.50;93.00
32217;DHT22;67098;51.140;4.088;2023-08-31T05:51:04;16.50;92.90
32217;DHT22;67098;51.140;4.088;2023-08-31T05:53:30;16.50;93.00
32217;DHT22;67098;51.140;4.088;2023-08-31T05:55:58;16.60;93.00
32217;DHT22;67098;51.140;4.088;2023-08-31T05:58:37;16.60;92.90
32217;DHT22;67098;51.140;4.088;2023-08-31T06:01:04;16.50;93.00
32217;DHT22;67098;51.140;4.088;2023-08-31T06:03:30;16.50;93.20
32217;DHT22;67098;51.140;4.088;2023-08-31T06:05:57;16.60;93.30
32217;DHT22;67098;51.140;4.088;2023-08-31T06:08:23;16.70;93.40
32217;DHT22;67098;51.140;4.088;2023-08-31T06:10:50;16.80;93.30
32217;DHT22;67098;51.140;4.088;2023-08-31T06:13:16;16.90;93.40
32217;DHT22;67098;51.140;4.088;2023-08-31T06:15:42;17.00;93.40
32217;DHT22;67098;51.140;4.088;2023-08-31T06:18:08;17.10;93.40
32217;DHT22;67098;51.140;4.088;2023-08-31T06:20:34;17.20;93.40
32217;DHT22;67098;51.140;4.088;2023-08-31T06:23:00;17.30;93.30
32217;DHT22;67098;51.140;4.088;2023-08-31T06:25:25;17.50;93.00
32217;DHT22;67098;51.140;4.088;2023-08-31T06:27:51;17.60;93.00
32217;DHT22;67098;51.140;4.088;2023-08-31T06:30:17;17.60;92.80
32217;DHT22;67098;51.140;4.088;2023-08-31T06:32:45;17.70;93.00
32217;DHT22;67098;51.140;4.088;2023-08-31T06:35:12;17.80;92.80
32217;DHT22;67098;51.140;4.088;2023-08-31T06:37:41;17.80;92.80
32217;DHT22;67098;51.140;4.088;2023-08-31T06:40:08;17.90;92.70
32217;DHT22;67098;51.140;4.088;2023-08-31T06:42:38;18.10;92.80
32217;DHT22;67098;51.140;4.088;2023-08-31T06:45:05;18.30;92.10
32217;DHT22;67098;51.140;4.088;2023-08-31T06:47:32;18.20;92.10
32217;DHT22;67098;51.140;4.088;2023-08-31T06:49:57;18.30;92.20
32217;DHT22;67098;51.140;4.088;2023-08-31T06:52:24;18.20;91.90
32217;DHT22;67098;51.140;4.088;2023-08-31T06:54:50;18.30;92.00
32217;DHT22;67098;51.140;4.088;2023-08-31T06:57:23;18.30;91.90
32217;DHT22;67098;51.140;4.088;2023-08-31T06:59:49;18.30;91.70
32217;DHT22;67098;51.140;4.088;2023-08-31T07:02:16;18.30;91.90
32217;DHT22;67098;51.140;4.088;2023-08-31T07:04:41;18.20;92.00
32217;DHT22;67098;51.140;4.088;2023-08-31T07:07:08;18.30;92.20
32217;DHT22;67098;51.140;4.088;2023-08-31T07:09:38;18.50;92.80
32217;DHT22;67098;51.140;4.088;2023-08-31T07:12:04;18.50;92.80
32217;DHT22;67098;51.140;4.088;2023-08-31T07:14:30;18.50;92.60
32217;DHT22;67098;51.140;4.088;2023-08-31T07:16:56;18.60;92.70
32217;DHT22;67098;51.140;4.088;2023-08-31T07:19:22;18.80;92.30
32217;DHT22;67098;51.140;4.088;2023-08-31T07:21:48;19.00;91.80
32217;DHT22;67098;51.140;4.088;2023-08-31T07:24:14;19.10;92.20
32217;DHT22;67098;51.140;4.088;2023-08-31T07:26:39;19.20;91.60
32217;DHT22;67098;51.140;4.088;2023-08-31T07:29:05;19.30;91.70
32217;DHT22;67098;51.140;4.088;2023-08-31T07:31:31;19.40;91.80
32217;DHT22;67098;51.140;4.088;2023-08-31T07:33:57;19.60;91.30
32217;DHT22;67098;51.140;4.088;2023-08-31T07:36:24;19.80;91.20
32217;DHT22;67098;51.140;4.088;2023-08-31T07:38:50;19.80;91.50
32217;DHT22;67098;51.140;4.088;2023-08-31T07:41:16;20.00;91.30
32217;DHT22;67098;51.140;4.088;2023-08-31T07:43:42;20.10;91.60
32217;DHT22;67098;51.140;4.088;2023-08-31T07:46:07;20.30;91.00
32217;DHT22;67098;51.140;4.088;2023-08-31T07:48:33;20.30;91.00
32217;DHT22;67098;51.140;4.088;2023-08-31T07:50:59;20.60;90.90
32217;DHT22;67098;51.140;4.088;2023-08-31T07:53:25;21.00;90.60
32217;DHT22;67098;51.140;4.088;2023-08-31T07:55:54;21.20;90.30
32217;DHT22;67098;51.140;4.088;2023-08-31T07:58:21;21.30;89.50
32217;DHT22;67098;51.140;4.088;2023-08-31T08:00:48;21.50;89.40
32217;DHT22;67098;51.140;4.088;2023-08-31T08:03:14;21.80;88.40
32217;DHT22;67098;51.140;4.088;2023-08-31T08:05:40;22.00;88.60
32217;DHT22;67098;51.140;4.088;2023-08-31T08:08:07;22.30;87.50
32217;DHT22;67098;51.140;4.088;2023-08-31T08:10:33;22.60;86.10
32217;DHT22;67098;51.140;4.088;2023-08-31T08:12:59;22.80;85.80
32217;DHT22;67098;51.140;4.088;2023-08-31T08:15:24;23.10;84.80
32217;DHT22;67098;51.140;4.088;2023-08-31T08:17:50;23.20;83.40
32217;DHT22;67098;51.140;4.088;2023-08-31T08:20:16;23.30;83.40
32217;DHT22;67098;51.140;4.088;2023-08-31T08:22:42;23.50;82.70
32217;DHT22;67098;51.140;4.088;2023-08-31T08:25:09;23.60;82.70
32217;DHT22;67098;51.140;4.088;2023-08-31T08:27:34;23.60;81.80
32217;DHT22;67098;51.140;4.088;2023-08-31T08:30:03;23.80;80.80
32217;DHT22;67098;51.140;4.088;2023-08-31T08:32:29;23.90;79.90
32217;DHT22;67098;51.140;4.088;2023-08-31T08:34:54;24.00;79.90
32217;DHT22;67098;51.140;4.088;2023-08-31T08:37:20;24.20;79.50
32217;DHT22;67098;51.140;4.088;2023-08-31T08:39:49;24.40;79.20
32217;DHT22;67098;51.140;4.088;2023-08-31T08:42:17;24.30;77.40
32217;DHT22;67098;51.140;4.088;2023-08-31T08:44:43;24.30;77.20
32217;DHT22;67098;51.140;4.088;2023-08-31T08:47:11;24.50;77.80
32217;DHT22;67098;51.140;4.088;2023-08-31T08:49:37;24.80;77.40
32217;DHT22;67098;51.140;4.088;2023-08-31T08:52:04;24.90;76.40
32217;DHT22;67098;51.140;4.088;2023-08-31T08:54:30;25.10;77.10
32217;DHT22;67098;51.140;4.088;2023-08-31T08:56:56;25.60;75.80
32217;DHT22;67098;51.140;4.088;2023-08-31T08:59:23;26.10;75.20
32217;DHT22;67098;51.140;4.088;2023-08-31T09:01:49;26.60;73.90
32217;DHT22;67098;51.140;4.088;2023-08-31T09:04:16;27.00;72.10
32217;DHT22;67098;51.140;4.088;2023-08-31T09:06:42;27.40;71.60
32217;DHT22;67098;51.140;4.088;2023-08-31T09:09:09;27.80;70.50
32217;DHT22;67098;51.140;4.088;2023-08-31T09:11:35;28.10;69.70
32217;DHT22;67098;51.140;4.088;2023-08-31T09:14:17;28.30;69.00
32217;DHT22;67098;51.140;4.088;2023-08-31T09:16:49;28.60;67.80
32217;DHT22;67098;51.140;4.088;2023-08-31T09:19:22;28.70;66.50
32217;DHT22;67098;51.140;4.088;2023-08-31T09:21:50;29.10;66.50
32217;DHT22;67098;51.140;4.088;2023-08-31T09:24:16;28.90;65.40
32217;DHT22;67098;51.140;4.088;2023-08-31T09:26:46;28.70;65.20
32217;DHT22;67098;51.140;4.088;2023-08-31T09:29:13;28.60;65.10
32217;DHT22;67098;51.140;4.088;2023-08-31T09:31:42;28.70;64.80
32217;DHT22;67098;51.140;4.088;2023-08-31T09:34:09;28.90;65.10
32217;DHT22;67098;51.140;4.088;2023-08-31T09:36:39;29.10;65.30
32217;DHT22;67098;51.140;4.088;2023-08-31T09:39:08;28.80;64.60
32217;DHT22;67098;51.140;4.088;2023-08-31T09:41:35;28.70;64.00
32217;DHT22;67098;51.140;4.088;2023-08-31T09:44:18;28.50;64.30
32217;DHT22;67098;51.140;4.088;2023-08-31T09:46:46;28.60;63.40
32217;DHT22;67098;51.140;4.088;2023-08-31T09:49:16;28.90;63.20
32217;DHT22;67098;51.140;4.088;2023-08-31T09:51:46;29.10;62.80
32217;DHT22;67098;51.140;4.088;2023-08-31T09:54:17;29.10;62.70
32217;DHT22;67098;51.140;4.088;2023-08-31T09:56:45;28.90;61.90
32217;DHT22;67098;51.140;4.088;2023-08-31T09:59:15;29.20;62.50
32217;DHT22;67098;51.140;4.088;2023-08-31T10:01:44;29.60;63.20
32217;DHT22;67098;51.140;4.088;2023-08-31T10:04:10;30.00;62.20
32217;DHT22;67098;51.140;4.088;2023-08-31T10:06:42;30.60;61.70
32217;DHT22;67098;51.140;4.088;2023-08-31T10:09:08;30.90;60.00
32217;DHT22;67098;51.140;4.088;2023-08-31T10:11:41;31.00;58.70
32217;DHT22;67098;51.140;4.088;2023-08-31T10:14:09;31.40;58.50
32217;DHT22;67098;51.140;4.088;2023-08-31T10:16:38;31.20;58.20
32217;DHT22;67098;51.140;4.088;2023-08-31T10:19:05;31.10;58.10
32217;DHT22;67098;51.140;4.088;2023-08-31T10:21:32;31.20;58.00
32217;DHT22;67098;51.140;4.088;2023-08-31T10:23:59;31.60;58.40
32217;DHT22;67098;51.140;4.088;2023-08-31T10:26:29;31.50;58.20
32217;DHT22;67098;51.140;4.088;2023-08-31T10:28:55;31.30;55.50
32217;DHT22;67098;51.140;4.088;2023-08-31T10:31:22;31.00;55.10
32217;DHT22;67098;51.140;4.088;2023-08-31T10:34:04;30.50;56.40
32217;DHT22;67098;51.140;4.088;2023-08-31T10:39:06;30.90;57.30
32217;DHT22;67098;51.140;4.088;2023-08-31T10:41:35;31.50;57.30
32217;DHT22;67098;51.140;4.088;2023-08-31T10:44:18;31.50;56.40
32217;DHT22;67098;51.140;4.088;2023-08-31T10:46:44;31.80;55.70
32217;DHT22;67098;51.140;4.088;2023-08-31T10:51:38;32.10;55.50
32217;DHT22;67098;51.140;4.088;2023-08-31T10:56:52;32.50;54.20
32217;DHT22;67098;51.140;4.088;2023-08-31T10:59:22;32.60;53.90
32217;DHT22;67098;51.140;4.088;2023-08-31T11:04:25;31.20;54.50
32217;DHT22;67098;51.140;4.088;2023-08-31T11:07:13;30.70;55.60
32217;DHT22;67098;51.140;4.088;2023-08-31T11:09:40;30.80;55.80
32217;DHT22;67098;51.140;4.088;2023-08-31T11:12:06;30.50;56.40
32217;DHT22;67098;51.140;4.088;2023-08-31T11:14:33;30.30;55.70
32217;DHT22;67098;51.140;4.088;2023-08-31T11:17:00;29.90;57.00
32217;DHT22;67098;51.140;4.088;2023-08-31T11:19:28;29.70;57.70
32217;DHT22;67098;51.140;4.088;2023-08-31T11:21:54;29.50;58.40
32217;DHT22;67098;51.140;4.088;2023-08-31T11:24:20;29.30;58.50
32217;DHT22;67098;51.140;4.088;2023-08-31T11:26:53;29.00;58.50
32217;DHT22;67098;51.140;4.088;2023-08-31T11:29:19;28.70;58.70
32217;DHT22;67098;51.140;4.088;2023-08-31T11:31:45;28.50;59.10
32217;DHT22;67098;51.140;4.088;2023-08-31T11:34:17;28.10;59.50
32217;DHT22;67098;51.140;4.088;2023-08-31T11:36:45;28.00;60.00
32217;DHT22;67098;51.140;4.088;2023-08-31T11:39:12;27.60;60.30
32217;DHT22;67098;51.140;4.088;2023-08-31T11:41:38;27.50;60.10
32217;DHT22;67098;51.140;4.088;2023-08-31T11:44:09;27.50;60.00
32217;DHT22;67098;51.140;4.088;2023-08-31T11:46:37;27.30;60.70
32217;DHT22;67098;51.140;4.088;2023-08-31T11:49:03;27.30;60.50
32217;DHT22;67098;51.140;4.088;2023-08-31T11:51:31;27.20;60.60
32217;DHT22;67098;51.140;4.088;2023-08-31T11:54:14;27.40;60.80
32217;DHT22;67098;51.140;4.088;2023-08-31T11:57:01;27.60;61.30
32217;DHT22;67098;51.140;4.088;2023-08-31T11:59:29;27.30;60.60
32217;DHT22;67098;51.140;4.088;2023-08-31T12:02:00;27.40;60.80
32217;DHT22;67098;51.140;4.088;2023-08-31T12:04:26;27.30;61.20
32217;DHT22;67098;51.140;4.088;2023-08-31T12:06:53;27.30;61.10
32217;DHT22;67098;51.140;4.088;2023-08-31T12:09:27;27.60;60.50
32217;DHT22;67098;51.140;4.088;2023-08-31T12:11:53;27.60;59.80
32217;DHT22;67098;51.140;4.088;2023-08-31T12:14:21;27.90;59.80
32217;DHT22;67098;51.140;4.088;2023-08-31T12:16:47;28.50;60.10
32217;DHT22;67098;51.140;4.088;2023-08-31T12:19:13;28.80;59.40
32217;DHT22;67098;51.140;4.088;2023-08-31T12:21:41;29.20;58.30
32217;DHT22;67098;51.140;4.088;2023-08-31T12:24:07;28.90;58.70
32217;DHT22;67098;51.140;4.088;2023-08-31T12:26:34;28.40;59.20
32217;DHT22;67098;51.140;4.088;2023-08-31T12:29:01;28.50;59.30
32217;DHT22;67098;51.140;4.088;2023-08-31T12:31:26;29.00;58.30
32217;DHT22;67098;51.140;4.088;2023-08-31T12:33:52;29.20;58.10
32217;DHT22;67098;51.140;4.088;2023-08-31T12:36:18;29.30;58.30
32217;DHT22;67098;51.140;4.088;2023-08-31T12:38:44;29.60;58.40
32217;DHT22;67098;51.140;4.088;2023-08-31T12:41:19;29.50;58.20
32217;DHT22;67098;51.140;4.088;2023-08-31T12:43:45;29.40;58.80
32217;DHT22;67098;51.140;4.088;2023-08-31T12:46:11;29.10;59.10
32217;DHT22;67098;51.140;4.088;2023-08-31T12:48:39;28.90;59.30
32217;DHT22;67098;51.140;4.088;2023-08-31T12:51:05;28.30;59.50
32217;DHT22;67098;51.140;4.088;2023-08-31T12:53:31;28.40;59.90
32217;DHT22;67098;51.140;4.088;2023-08-31T12:55:58;28.50;59.80
32217;DHT22;67098;51.140;4.088;2023-08-31T12:58:27;28.50;59.70
32217;DHT22;67098;51.140;4.088;2023-08-31T13:00:54;28.30;59.80
32217;DHT22;67098;51.140;4.088;2023-08-31T13:03:20;28.00;60.00
32217;DHT22;67098;51.140;4.088;2023-08-31T13:05:46;27.80;59.50
32217;DHT22;67098;51.140;4.088;2023-08-31T13:08:12;27.30;60.10
32217;DHT22;67098;51.140;4.088;2023-08-31T13:10:38;27.10;60.20
32217;DHT22;67098;51.140;4.088;2023-08-31T13:13:04;26.90;60.20
32217;DHT22;67098;51.140;4.088;2023-08-31T13:15:31;26.80;60.60
32217;DHT22;67098;51.140;4.088;2023-08-31T13:17:58;26.90;61.10
32217;DHT22;67098;51.140;4.088;2023-08-31T13:20:24;26.80;61.20
32217;DHT22;67098;51.140;4.088;2023-08-31T13:22:50;26.70;61.40
32217;DHT22;67098;51.140;4.088;2023-08-31T13:25:17;26.80;61.50
32217;DHT22;67098;51.140;4.088;2023-08-31T13:27:43;26.90;61.70
32217;DHT22;67098;51.140;4.088;2023-08-31T13:30:10;26.90;61.20
32217;DHT22;67098;51.140;4.088;2023-08-31T13:32:38;27.00;61.40
32217;DHT22;67098;51.140;4.088;2023-08-31T13:35:04;27.30;60.80
32217;DHT22;67098;51.140;4.088;2023-08-31T13:37:34;28.10;60.00
32217;DHT22;67098;51.140;4.088;2023-08-31T13:39:59;29.00;58.50
32217;DHT22;67098;51.140;4.088;2023-08-31T13:42:36;29.90;58.10
32217;DHT22;67098;51.140;4.088;2023-08-31T13:45:08;30.50;56.50
32217;DHT22;67098;51.140;4.088;2023-08-31T13:47:34;31.00;56.50
32217;DHT22;67098;51.140;4.088;2023-08-31T13:49:59;31.00;54.50
32217;DHT22;67098;51.140;4.088;2023-08-31T13:52:25;30.80;54.50
32217;DHT22;67098;51.140;4.088;2023-08-31T13:54:52;30.60;54.70
32217;DHT22;67098;51.140;4.088;2023-08-31T13:57:18;30.30;54.70
32217;DHT22;67098;51.140;4.088;2023-08-31T13:59:44;30.10;55.10
32217;DHT22;67098;51.140;4.088;2023-08-31T14:02:11;29.60;55.30
32217;DHT22;67098;51.140;4.088;2023-08-31T14:04:37;29.40;55.30
32217;DHT22;67098;51.140;4.088;2023-08-31T14:07:03;29.20;56.00
32217;DHT22;67098;51.140;4.088;2023-08-31T14:09:29;29.00;56.50
32217;DHT22;67098;51.140;4.088;2023-08-31T14:11:55;28.60;57.30
32217;DHT22;67098;51.140;4.088;2023-08-31T14:14:23;28.20;57.00
32217;DHT22;67098;51.140;4.088;2023-08-31T14:16:49;27.80;57.10
32217;DHT22;67098;51.140;4.088;2023-08-31T14:19:16;27.60;57.50
32217;DHT22;67098;51.140;4.088;2023-08-31T14:21:41;27.50;57.90
32217;DHT22;67098;51.140;4.088;2023-08-31T14:24:08;27.30;58.50
32217;DHT22;67098;51.140;4.088;2023-08-31T14:26:33;27.20;59.10
32217;DHT22;67098;51.140;4.088;2023-08-31T14:28:59;27.00;58.50
32217;DHT22;67098;51.140;4.088;2023-08-31T14:31:25;26.90;58.80
32217;DHT22;67098;51.140;4.088;2023-08-31T14:33:51;26.80;59.20
32217;DHT22;67098;51.140;4.088;2023-08-31T14:36:17;26.90;59.30
32217;DHT22;67098;51.140;4.088;2023-08-31T14:38:43;27.00;60.00
32217;DHT22;67098;51.140;4.088;2023-08-31T14:41:11;27.00;60.50
32217;DHT22;67098;51.140;4.088;2023-08-31T14:43:37;26.90;60.00
32217;DHT22;67098;51.140;4.088;2023-08-31T14:46:03;26.90;60.60
32217;DHT22;67098;51.140;4.088;2023-08-31T14:48:31;26.90;61.10
32217;DHT22;67098;51.140;4.088;2023-08-31T14:50:57;26.90;60.80
32217;DHT22;67098;51.140;4.088;2023-08-31T14:53:27;26.90;61.10
32217;DHT22;67098;51.140;4.088;2023-08-31T14:55:53;26.80;61.00
32217;DHT22;67098;51.140;4.088;2023-08-31T14:58:19;26.70;61.10
32217;DHT22;67098;51.140;4.088;2023-08-31T15:00:45;26.40;61.40
32217;DHT22;67098;51.140;4.088;2023-08-31T15:03:11;26.40;61.20
32217;DHT22;67098;51.140;4.088;2023-08-31T15:05:38;26.20;61.50
32217;DHT22;67098;51.140;4.088;2023-08-31T15:08:06;25.80;62.20
32217;DHT22;67098;51.140;4.088;2023-08-31T15:10:32;25.80;62.20
32217;DHT22;67098;51.140;4.088;2023-08-31T15:12:58;25.70;62.10
32217;DHT22;67098;51.140;4.088;2023-08-31T15:15:26;25.60;62.20
32217;DHT22;67098;51.140;4.088;2023-08-31T15:17:52;25.60;62.20
32217;DHT22;67098;51.140;4.088;2023-08-31T15:20:18;25.50;62.60
32217;DHT22;67098;51.140;4.088;2023-08-31T15:23:05;25.40;62.70
32217;DHT22;67098;51.140;4.088;2023-08-31T15:25:33;25.50;62.40
32217;DHT22;67098;51.140;4.088;2023-08-31T15:27:59;25.50;62.60
32217;DHT22;67098;51.140;4.088;2023-08-31T15:30:25;25.40;62.90
32217;DHT22;67098;51.140;4.088;2023-08-31T15:32:51;25.30;63.10
32217;DHT22;67098;51.140;4.088;2023-08-31T15:35:20;25.20;63.20
32217;DHT22;67098;51.140;4.088;2023-08-31T15:37:46;25.20;63.30
32217;DHT22;67098;51.140;4.088;2023-08-31T15:40:14;25.00;63.70
32217;DHT22;67098;51.140;4.088;2023-08-31T15:42:39;25.10;63.80